Time;durP1;ratioP1;P1;durP2;ratioP2;P2;SDS_P1;SDS_P2;PMS_P1;PMS_P2;Temp;Humidity;BMP_temperature;BMP_pressure;BME280_temperature;BME280_humidity;BME280_pressure;Samples;Min_cycle;Max_cycle;Signal;HPM_P1;HPM_P2
2022/10/21 00:00:25;;;;;;;16.60;8.23;;;16.20;90.90;;;;;;5023100;28;20120;-90
2022/10/21 00:02:50;;;;;;;12.85;8.02;;;16.20;90.80;;;;;;5026955;28;20040;-86
2022/10/21 00:05:16;;;;;;;14.48;8.02;;;16.20;90.90;;;;;;5044454;28;20029;-91
2022/10/21 00:07:42;;;;;;;14.50;8.82;;;16.10;90.80;;;;;;5052718;28;20384;-86
2022/10/21 00:10:08;;;;;;;13.77;8.82;;;16.10;90.80;;;;;;5023835;28;20045;-86
2022/10/21 00:12:34;;;;;;;16.17;8.52;;;16.10;90.80;;;;;;5029073;28;20837;-84
2022/10/21 00:15:01;;;;;;;12.80;7.95;;;16.10;90.80;;;;;;5027923;28;20385;-86
2022/10/21 00:17:26;;;;;;;14.38;7.85;;;16.00;90.70;;;;;;5026603;28;20048;-85
2022/10/21 00:19:53;;;;;;;12.65;7.35;;;16.00;90.70;;;;;;5039783;28;20026;-84
2022/10/21 00:22:19;;;;;;;13.48;7.60;;;15.90;90.70;;;;;;5040716;28;20416;-84
2022/10/21 00:24:45;;;;;;;12.10;6.82;;;15.90;90.70;;;;;;5024310;28;20477;-83
2022/10/21 00:27:10;;;;;;;12.90;6.28;;;15.80;90.60;;;;;;5028071;28;20435;-86
2022/10/21 00:29:36;;;;;;;14.40;6.82;;;15.80;90.60;;;;;;5021821;28;20045;-85
2022/10/21 00:32:02;;;;;;;9.02;5.57;;;15.70;90.50;;;;;;5025853;28;20091;-82
2022/10/21 00:34:27;;;;;;;10.30;5.50;;;15.70;90.40;;;;;;5027436;28;20071;-83
2022/10/21 00:36:53;;;;;;;10.48;5.25;;;15.70;90.40;;;;;;5026406;28;20034;-83
2022/10/21 00:39:18;;;;;;;9.82;4.80;;;15.70;90.30;;;;;;5023873;28;20154;-86
2022/10/21 00:41:44;;;;;;;10.63;4.65;;;15.70;90.20;;;;;;5027140;28;20049;-85
2022/10/21 00:44:12;;;;;;;9.80;4.72;;;15.60;90.20;;;;;;5039967;28;20038;-84
2022/10/21 00:46:52;;;;;;;9.82;4.40;;;15.60;90.10;;;;;;5027896;28;20065;-88
2022/10/21 00:49:20;;;;;;;11.00;4.85;;;15.50;90.00;;;;;;5024082;28;20092;-86
2022/10/21 00:51:49;;;;;;;9.68;4.60;;;15.50;89.90;;;;;;5027131;28;20045;-86
2022/10/21 00:54:16;;;;;;;9.88;4.43;;;15.60;89.90;;;;;;5024164;28;20100;-84
2022/10/21 00:56:44;;;;;;;10.57;4.65;;;15.50;90.00;;;;;;5023893;28;20034;-85
2022/10/21 00:59:10;;;;;;;7.88;4.10;;;15.50;89.90;;;;;;5020645;28;20065;-85
2022/10/21 01:01:36;;;;;;;9.38;4.15;;;15.50;89.80;;;;;;5024939;28;20087;-86
2022/10/21 01:04:02;;;;;;;7.90;3.92;;;15.50;89.80;;;;;;5023345;28;20421;-86
2022/10/21 01:06:29;;;;;;;8.77;3.88;;;15.50;89.80;;;;;;5022906;28;20045;-85
2022/10/21 01:08:56;;;;;;;12.45;3.58;;;15.50;89.70;;;;;;5028973;28;20485;-85
2022/10/21 01:11:23;;;;;;;9.18;4.15;;;15.50;89.60;;;;;;5024934;28;20057;-85
2022/10/21 01:14:15;;;;;;;7.57;3.40;;;15.40;89.70;;;;;;5023748;28;20052;-84
2022/10/21 01:16:52;;;;;;;6.60;3.65;;;15.40;89.60;;;;;;5024579;28;20040;-86
2022/10/21 01:19:51;;;;;;;9.45;3.72;;;15.40;89.60;;;;;;5025523;28;20041;-86
2022/10/21 01:22:35;;;;;;;7.75;3.42;;;15.40;89.60;;;;;;5025541;28;20049;-84
2022/10/21 01:25:13;;;;;;;8.85;3.72;;;15.40;89.60;;;;;;5026058;28;20141;-85
2022/10/21 01:27:49;;;;;;;6.97;3.40;;;15.40;89.60;;;;;;5029159;28;20034;-91
2022/10/21 01:30:52;;;;;;;9.32;4.10;;;15.30;89.60;;;;;;5046652;28;20068;-88
2022/10/21 01:33:30;;;;;;;8.77;4.10;;;15.40;89.60;;;;;;5029158;28;20053;-85
2022/10/21 01:36:16;;;;;;;7.97;3.33;;;15.30;89.70;;;;;;5027007;28;20040;-84
2022/10/21 01:38:59;;;;;;;7.30;3.70;;;15.30;89.80;;;;;;5025774;28;20046;-84
2022/10/21 01:41:28;;;;;;;7.40;3.45;;;15.30;89.70;;;;;;5027829;28;20125;-85
2022/10/21 01:44:01;;;;;;;7.00;3.60;;;15.30;89.70;;;;;;5024565;28;20505;-85
2022/10/21 01:46:33;;;;;;;11.02;3.85;;;15.20;89.70;;;;;;5025733;28;20034;-84
2022/10/21 01:49:05;;;;;;;7.32;3.63;;;15.30;89.70;;;;;;5027955;28;20404;-83
2022/10/21 01:51:33;;;;;;;11.68;3.83;;;15.20;89.70;;;;;;5025877;28;20168;-84
2022/10/21 01:54:05;;;;;;;7.60;3.40;;;15.20;89.70;;;;;;5028685;28;20503;-84
2022/10/21 01:56:32;;;;;;;7.85;3.22;;;15.20;89.60;;;;;;5029205;28;20112;-86
2022/10/21 01:58:59;;;;;;;10.63;4.03;;;15.20;89.70;;;;;;5025642;28;20033;-83
2022/10/21 02:01:25;;;;;;;10.30;3.88;;;15.10;89.70;;;;;;5026588;28;20107;-84
2022/10/21 02:03:57;;;;;;;11.13;3.60;;;15.10;89.70;;;;;;5028046;28;20056;-83
2022/10/21 02:06:24;;;;;;;7.97;3.50;;;15.10;89.80;;;;;;5029089;28;20041;-85
2022/10/21 02:08:49;;;;;;;8.32;3.88;;;15.10;89.90;;;;;;5034404;28;20037;-88
2022/10/21 02:11:17;;;;;;;7.50;3.75;;;15.10;89.90;;;;;;5035974;28;20040;-89
2022/10/21 02:14:00;;;;;;;9.35;3.60;;;15.10;89.80;;;;;;5032585;28;20047;-84
2022/10/21 02:16:30;;;;;;;9.38;3.50;;;15.10;89.80;;;;;;5025267;28;20102;-84
2022/10/21 02:18:58;;;;;;;7.75;3.33;;;15.10;89.80;;;;;;5019623;28;20755;-86
2022/10/21 02:21:27;;;;;;;7.47;3.58;;;15.10;89.90;;;;;;5023881;28;20030;-86
2022/10/21 02:24:04;;;;;;;10.05;3.70;;;15.10;89.90;;;;;;5024031;28;20069;-84
2022/10/21 02:26:30;;;;;;;7.18;3.30;;;15.10;89.90;;;;;;5036500;28;20527;-84
2022/10/21 02:28:57;;;;;;;11.57;3.50;;;15.00;89.80;;;;;;5030637;28;20167;-87
2022/10/21 02:31:35;;;;;;;10.20;3.90;;;15.00;89.90;;;;;;5028875;28;20496;-83
2022/10/21 02:34:09;;;;;;;6.70;3.30;;;15.00;89.90;;;;;;5029281;28;20332;-85
2022/10/21 02:37:14;;;;;;;10.63;3.85;;;14.90;89.90;;;;;;5033393;28;20029;-84
2022/10/21 02:39:59;;;;;;;9.88;3.75;;;14.90;90.00;;;;;;5036709;28;20041;-84
2022/10/21 02:42:30;;;;;;;9.57;3.55;;;14.80;90.00;;;;;;5027261;28;20042;-82
2022/10/21 02:44:56;;;;;;;7.13;3.33;;;14.80;89.90;;;;;;5024983;28;20055;-84
2022/10/21 02:47:25;;;;;;;7.70;3.45;;;14.80;89.90;;;;;;5024296;28;20466;-85
2022/10/21 02:49:50;;;;;;;11.55;3.83;;;14.80;90.00;;;;;;5021854;28;20481;-84
2022/10/21 02:52:16;;;;;;;7.10;3.10;;;14.70;90.00;;;;;;5026365;28;20073;-82
2022/10/21 02:54:42;;;;;;;9.63;3.75;;;14.70;90.10;;;;;;5030217;28;20437;-89
2022/10/21 02:57:08;;;;;;;7.78;4.07;;;14.70;90.20;;;;;;5035905;28;20277;-88
2022/10/21 02:59:33;;;;;;;8.73;3.83;;;14.70;90.20;;;;;;5022483;28;20041;-87
2022/10/21 03:01:59;;;;;;;8.73;4.25;;;14.60;90.40;;;;;;5016455;28;20212;-84
2022/10/21 03:04:24;;;;;;;9.23;3.85;;;14.60;90.40;;;;;;5020162;28;20060;-84
2022/10/21 03:06:50;;;;;;;6.80;3.33;;;14.60;90.40;;;;;;5021039;28;20469;-86
2022/10/21 03:09:16;;;;;;;8.80;3.83;;;14.60;90.50;;;;;;5022961;28;20088;-84
2022/10/21 03:11:41;;;;;;;8.60;4.28;;;14.60;90.50;;;;;;5019955;28;20381;-86
2022/10/21 03:14:07;;;;;;;7.55;4.00;;;14.50;90.50;;;;;;5019292;28;20087;-83
2022/10/21 03:16:33;;;;;;;10.38;5.05;;;14.50;90.50;;;;;;5020267;28;20080;-84
2022/10/21 03:18:58;;;;;;;9.30;4.85;;;14.50;90.50;;;;;;5021575;28;20045;-85
2022/10/21 03:21:24;;;;;;;10.80;4.57;;;14.40;90.60;;;;;;5037578;28;20036;-85
2022/10/21 03:23:49;;;;;;;9.05;4.60;;;14.40;90.70;;;;;;5022173;28;20500;-87
2022/10/21 03:26:15;;;;;;;10.65;4.75;;;14.50;90.70;;;;;;5020081;28;20467;-84
2022/10/21 03:28:41;;;;;;;9.43;4.07;;;14.50;90.80;;;;;;5013155;28;20050;-83
2022/10/21 03:31:07;;;;;;;8.60;4.13;;;14.60;90.80;;;;;;5016518;28;20041;-87
2022/10/21 03:33:32;;;;;;;11.80;4.10;;;14.50;90.80;;;;;;5020274;28;20486;-84
2022/10/21 03:35:58;;;;;;;8.23;3.70;;;14.50;90.90;;;;;;5017385;28;20101;-86
2022/10/21 03:38:24;;;;;;;8.88;3.70;;;14.50;91.00;;;;;;5021298;28;20040;-86
2022/10/21 03:40:50;;;;;;;9.02;3.88;;;14.50;91.00;;;;;;5019325;28;20105;-84
2022/10/21 03:43:16;;;;;;;12.07;4.32;;;14.50;90.90;;;;;;5019885;28;20492;-86
2022/10/21 03:45:41;;;;;;;7.70;3.28;;;14.50;90.90;;;;;;5016491;28;20034;-85
2022/10/21 03:48:07;;;;;;;7.20;3.45;;;14.50;91.00;;;;;;5021661;28;20041;-86
2022/10/21 03:50:33;;;;;;;7.18;3.72;;;14.50;90.90;;;;;;5019888;28;20516;-88
2022/10/21 03:52:59;;;;;;;7.90;4.13;;;14.50;91.00;;;;;;5016089;28;20440;-85
2022/10/21 03:55:25;;;;;;;9.00;3.65;;;14.50;91.00;;;;;;5018326;28;20780;-83
2022/10/21 03:57:52;;;;;;;9.10;4.28;;;14.50;91.10;;;;;;5019408;28;20396;-83
2022/10/21 04:00:17;;;;;;;10.43;4.28;;;14.50;91.10;;;;;;5014108;28;20530;-86
2022/10/21 04:02:43;;;;;;;10.45;4.00;;;14.50;91.10;;;;;;5020804;28;20037;-87
2022/10/21 04:05:09;;;;;;;10.98;3.75;;;14.50;91.10;;;;;;5019398;28;20040;-84
2022/10/21 04:07:35;;;;;;;9.55;3.95;;;14.50;91.20;;;;;;5015817;28;20033;-84
2022/10/21 04:10:01;;;;;;;8.50;3.95;;;14.60;91.20;;;;;;5014039;28;20046;-84
2022/10/21 04:12:26;;;;;;;8.95;4.30;;;14.60;91.20;;;;;;5024827;28;20116;-83
2022/10/21 04:14:52;;;;;;;9.68;3.72;;;14.60;91.20;;;;;;5021271;28;20042;-87
2022/10/21 04:17:18;;;;;;;10.10;3.60;;;14.60;91.20;;;;;;5023042;28;20050;-85
2022/10/21 04:19:43;;;;;;;9.90;3.35;;;14.60;91.10;;;;;;5032907;28;20116;-87
2022/10/21 04:22:09;;;;;;;9.70;4.07;;;14.60;91.10;;;;;;5032322;28;20227;-84
2022/10/21 04:24:34;;;;;;;8.98;4.00;;;14.60;91.00;;;;;;5024800;28;20038;-86
2022/10/21 04:27:00;;;;;;;9.18;4.18;;;14.60;91.10;;;;;;5024486;28;20037;-86
2022/10/21 04:29:26;;;;;;;12.05;4.30;;;14.70;91.00;;;;;;5024640;28;20508;-83
2022/10/21 04:31:51;;;;;;;9.43;4.03;;;14.70;91.00;;;;;;5029080;28;20456;-83
2022/10/21 04:34:17;;;;;;;8.98;3.80;;;14.60;91.00;;;;;;5027762;28;20520;-85
2022/10/21 04:36:42;;;;;;;9.70;4.32;;;14.60;91.00;;;;;;5026864;28;20552;-82
2022/10/21 04:39:08;;;;;;;10.32;4.38;;;14.70;91.00;;;;;;5025727;28;20457;-87
2022/10/21 04:41:34;;;;;;;10.70;4.10;;;14.70;90.90;;;;;;5025570;28;20033;-87
2022/10/21 04:44:01;;;;;;;9.45;4.45;;;14.70;91.00;;;;;;5024755;28;20428;-83
2022/10/21 04:46:26;;;;;;;14.60;4.90;;;14.70;91.00;;;;;;5021649;28;20037;-85
2022/10/21 04:48:52;;;;;;;10.35;4.03;;;14.70;90.90;;;;;;5024271;28;20061;-83
2022/10/21 04:51:17;;;;;;;10.10;3.90;;;14.70;90.90;;;;;;5024515;28;20378;-84
2022/10/21 04:53:43;;;;;;;10.85;4.85;;;14.70;90.90;;;;;;5024247;28;20030;-81
2022/10/21 04:56:09;;;;;;;9.90;4.32;;;14.70;90.90;;;;;;5020333;28;20038;-86
2022/10/21 04:58:35;;;;;;;7.90;4.40;;;14.70;90.90;;;;;;5040307;28;20080;-85
2022/10/21 05:01:01;;;;;;;8.80;3.88;;;14.70;90.90;;;;;;5032647;28;20113;-86
2022/10/21 05:03:26;;;;;;;10.45;4.97;;;14.70;90.80;;;;;;5026424;28;20161;-87
2022/10/21 05:05:52;;;;;;;11.48;5.78;;;14.70;90.90;;;;;;5028035;28;20128;-84
2022/10/21 05:08:19;;;;;;;9.85;5.10;;;14.70;90.90;;;;;;5024908;28;20117;-85
2022/10/21 05:10:45;;;;;;;10.52;5.57;;;14.70;90.90;;;;;;5024487;28;20038;-82
2022/10/21 05:13:10;;;;;;;16.85;5.80;;;14.70;90.90;;;;;;5025696;28;20033;-85
2022/10/21 05:15:36;;;;;;;9.95;5.07;;;14.70;90.90;;;;;;5027218;28;20087;-89
2022/10/21 05:18:02;;;;;;;9.82;5.40;;;14.70;90.80;;;;;;5030140;28;20365;-85
2022/10/21 05:20:28;;;;;;;9.10;5.47;;;14.70;90.80;;;;;;5023559;28;20041;-85
2022/10/21 05:22:53;;;;;;;10.10;4.90;;;14.70;90.80;;;;;;5024199;28;20025;-87
2022/10/21 05:25:19;;;;;;;9.23;4.88;;;14.70;90.70;;;;;;5026016;28;20052;-88
2022/10/21 05:27:45;;;;;;;7.93;4.60;;;14.70;90.70;;;;;;5028247;28;20037;-85
2022/10/21 05:30:12;;;;;;;11.27;4.93;;;14.70;90.70;;;;;;5027265;28;20792;-83
2022/10/21 05:32:43;;;;;;;11.48;5.38;;;14.70;90.70;;;;;;5023329;28;20072;-84
2022/10/21 05:35:10;;;;;;;9.32;5.57;;;14.70;90.70;;;;;;5028346;28;20091;-86
2022/10/21 05:37:36;;;;;;;9.77;5.30;;;14.70;90.70;;;;;;5026251;28;20649;-86
2022/10/21 05:40:03;;;;;;;11.50;5.18;;;14.70;90.70;;;;;;5028676;28;20110;-87
2022/10/21 05:42:28;;;;;;;10.20;5.80;;;14.70;90.70;;;;;;5030093;28;20044;-88
2022/10/21 05:44:54;;;;;;;10.77;5.35;;;14.70;90.70;;;;;;5044259;28;20081;-90
2022/10/21 05:47:20;;;;;;;13.43;5.35;;;14.80;90.60;;;;;;5037200;28;20038;-84
2022/10/21 05:49:45;;;;;;;10.93;5.35;;;14.80;90.50;;;;;;5024178;28;20048;-85
2022/10/21 05:52:12;;;;;;;11.77;5.25;;;14.80;90.50;;;;;;5030040;28;20453;-85
2022/10/21 05:54:37;;;;;;;10.93;4.60;;;14.80;90.40;;;;;;5026341;28;20481;-84
2022/10/21 05:57:03;;;;;;;11.18;5.32;;;14.70;90.50;;;;;;5032979;28;20084;-84
2022/10/21 05:59:28;;;;;;;9.38;4.82;;;14.70;90.50;;;;;;5026219;28;20048;-86
2022/10/21 06:01:54;;;;;;;9.82;5.28;;;14.70;90.50;;;;;;5023864;28;20117;-84
2022/10/21 06:04:19;;;;;;;8.85;5.47;;;14.80;90.60;;;;;;5027391;28;20072;-86
2022/10/21 06:06:45;;;;;;;9.45;5.35;;;14.80;90.60;;;;;;5027479;28;20060;-85
2022/10/21 06:09:11;;;;;;;8.60;4.35;;;14.80;90.50;;;;;;5023504;28;20052;-85
2022/10/21 06:11:36;;;;;;;11.77;5.55;;;14.80;90.60;;;;;;5029720;28;20544;-88
2022/10/21 06:14:02;;;;;;;14.50;5.80;;;14.80;90.60;;;;;;5024627;28;20416;-85
2022/10/21 06:16:28;;;;;;;11.60;6.38;;;14.80;90.70;;;;;;5024727;28;20511;-82
2022/10/21 06:18:53;;;;;;;12.77;6.22;;;14.90;90.80;;;;;;5021589;28;20038;-87
2022/10/21 06:21:19;;;;;;;12.93;6.10;;;14.90;90.80;;;;;;5022693;28;20052;-85
2022/10/21 06:23:45;;;;;;;14.40;6.53;;;14.90;90.80;;;;;;5017813;28;20498;-85
2022/10/21 06:26:13;;;;;;;11.40;5.88;;;14.90;90.80;;;;;;5019242;28;20054;-87
2022/10/21 06:28:40;;;;;;;13.00;5.90;;;15.00;90.80;;;;;;5017516;28;20040;-84
2022/10/21 06:31:07;;;;;;;11.93;5.82;;;15.00;91.00;;;;;;5020527;28;20026;-89
2022/10/21 06:33:33;;;;;;;14.52;6.15;;;15.00;90.90;;;;;;5020435;28;20068;-85
2022/10/21 06:35:59;;;;;;;12.57;5.93;;;15.00;91.00;;;;;;5020435;28;20038;-80
2022/10/21 06:38:25;;;;;;;10.38;5.32;;;15.10;91.00;;;;;;5015099;28;20501;-83
2022/10/21 06:40:52;;;;;;;11.77;6.35;;;15.10;90.80;;;;;;5016351;28;20693;-82
2022/10/21 06:43:18;;;;;;;17.25;6.82;;;15.10;90.90;;;;;;5010956;28;20041;-82
2022/10/21 06:45:44;;;;;;;12.05;5.60;;;15.10;90.80;;;;;;5018589;28;20030;-79
2022/10/21 06:48:12;;;;;;;11.65;6.05;;;15.20;90.80;;;;;;5019232;28;20500;-81
2022/10/21 06:50:38;;;;;;;12.85;6.10;;;15.20;90.80;;;;;;5014678;28;20048;-79
2022/10/21 06:53:04;;;;;;;14.43;6.30;;;15.20;90.80;;;;;;5012087;28;20041;-79
2022/10/21 06:55:29;;;;;;;15.63;6.22;;;15.30;90.80;;;;;;5011155;28;20044;-79
2022/10/21 06:57:55;;;;;;;16.17;6.38;;;15.30;90.80;;;;;;5017079;28;20060;-81
2022/10/21 07:00:21;;;;;;;15.55;6.22;;;15.40;90.80;;;;;;5014423;28;20579;-81
2022/10/21 07:02:46;;;;;;;12.25;5.20;;;15.40;90.80;;;;;;5022017;28;20156;-80
2022/10/21 07:05:12;;;;;;;14.77;5.93;;;15.40;90.70;;;;;;5015496;28;20473;-80
2022/10/21 07:07:38;;;;;;;9.75;5.53;;;15.50;90.70;;;;;;5015787;28;20033;-79
2022/10/21 07:10:04;;;;;;;12.15;6.10;;;15.60;90.50;;;;;;5027001;28;20076;-79
2022/10/21 07:12:29;;;;;;;12.70;5.25;;;15.60;90.60;;;;;;5023447;28;20149;-78
2022/10/21 07:14:55;;;;;;;12.82;6.13;;;15.60;90.50;;;;;;5020597;28;20480;-79
2022/10/21 07:17:21;;;;;;;12.10;4.95;;;15.60;90.50;;;;;;5017602;28;20599;-78
2022/10/21 07:19:47;;;;;;;13.75;6.10;;;15.60;90.40;;;;;;5018109;28;20058;-78
2022/10/21 07:22:14;;;;;;;10.55;5.20;;;15.70;90.30;;;;;;5013885;28;20156;-78
2022/10/21 07:24:40;;;;;;;10.70;5.47;;;15.70;90.30;;;;;;5018462;28;20042;-79
2022/10/21 07:27:06;;;;;;;11.15;5.40;;;15.80;90.10;;;;;;5019017;28;20111;-80
2022/10/21 07:29:32;;;;;;;11.88;5.18;;;15.70;90.00;;;;;;5018334;28;20508;-78
2022/10/21 07:31:58;;;;;;;12.50;6.28;;;15.70;90.00;;;;;;5017158;28;20037;-80
2022/10/21 07:34:24;;;;;;;10.90;4.97;;;15.70;89.90;;;;;;5017382;28;20037;-80
2022/10/21 07:36:51;;;;;;;11.55;5.50;;;15.70;89.90;;;;;;5016075;28;20037;-80
2022/10/21 07:39:22;;;;;;;14.02;5.70;;;15.80;89.90;;;;;;5016969;28;20275;-81
2022/10/21 07:41:51;;;;;;;9.70;5.22;;;15.80;89.90;;;;;;5019303;28;20061;-84
2022/10/21 07:44:18;;;;;;;12.48;5.45;;;15.90;89.90;;;;;;5015885;28;20060;-80
2022/10/21 07:46:45;;;;;;;12.68;5.43;;;15.80;89.90;;;;;;5019210;28;20592;-80
2022/10/21 07:49:12;;;;;;;12.52;5.40;;;15.90;89.80;;;;;;5023049;28;20362;-80
2022/10/21 07:51:38;;;;;;;11.15;4.82;;;16.00;89.70;;;;;;5020753;28;20473;-80
2022/10/21 07:54:04;;;;;;;12.65;5.03;;;16.10;89.60;;;;;;5017981;28;20506;-79
2022/10/21 07:56:33;;;;;;;13.02;5.30;;;16.20;89.40;;;;;;5013312;28;20523;-81
2022/10/21 07:59:00;;;;;;;15.23;5.00;;;16.20;89.30;;;;;;5035889;28;20045;-81
2022/10/21 08:01:26;;;;;;;9.70;4.75;;;16.30;89.10;;;;;;5020851;28;20034;-80
2022/10/21 08:03:53;;;;;;;9.98;4.30;;;16.40;88.90;;;;;;5021896;28;20461;-81
2022/10/21 08:06:20;;;;;;;10.93;5.07;;;16.40;88.80;;;;;;5018505;28;20107;-81
2022/10/21 08:08:46;;;;;;;11.60;4.85;;;16.60;88.70;;;;;;5020837;28;20137;-81
2022/10/21 08:11:19;;;;;;;11.45;4.28;;;16.60;88.30;;;;;;5019581;28;20116;-82
2022/10/21 08:13:45;;;;;;;9.32;4.28;;;16.60;88.20;;;;;;5020543;28;20038;-80
2022/10/21 08:16:11;;;;;;;9.30;3.90;;;16.70;88.10;;;;;;5019245;28;20346;-83
2022/10/21 08:18:36;;;;;;;10.55;3.90;;;16.70;88.10;;;;;;5022345;28;20044;-80
2022/10/21 08:21:03;;;;;;;9.63;3.78;;;16.80;87.80;;;;;;5025805;28;20029;-81
2022/10/21 08:23:30;;;;;;;8.07;4.05;;;16.80;87.70;;;;;;5018153;28;20704;-81
2022/10/21 08:25:59;;;;;;;9.32;4.18;;;16.80;87.60;;;;;;5022479;28;20556;-81
2022/10/21 08:28:27;;;;;;;11.27;3.65;;;16.80;87.50;;;;;;5036372;28;20041;-79
2022/10/21 08:31:00;;;;;;;9.77;3.97;;;16.80;87.50;;;;;;5020703;28;20120;-80
2022/10/21 08:33:26;;;;;;;11.90;4.05;;;16.80;87.50;;;;;;5023420;28;20273;-81
2022/10/21 08:35:52;;;;;;;11.52;3.80;;;16.90;87.40;;;;;;5023483;28;20076;-80
2022/10/21 08:38:18;;;;;;;9.43;3.80;;;17.10;87.50;;;;;;5020511;28;20120;-81
2022/10/21 08:40:46;;;;;;;10.63;3.55;;;17.30;87.00;;;;;;5019469;28;20033;-83
2022/10/21 08:43:17;;;;;;;9.60;3.90;;;17.60;86.40;;;;;;5027106;28;20033;-80
2022/10/21 08:45:48;;;;;;;11.55;3.13;;;17.80;85.30;;;;;;5052432;28;20041;-82
2022/10/21 08:48:19;;;;;;;9.80;2.95;;;18.00;84.70;;;;;;5021614;28;20038;-79
2022/10/21 08:50:48;;;;;;;8.02;2.65;;;18.00;84.40;;;;;;5023110;28;20045;-83
2022/10/21 08:53:38;;;;;;;11.10;3.08;;;18.00;84.10;;;;;;5022517;28;20095;-80
2022/10/21 08:56:12;;;;;;;8.45;2.83;;;18.10;83.80;;;;;;5022173;28;20543;-81
2022/10/21 08:58:39;;;;;;;9.07;2.70;;;18.10;83.60;;;;;;5019858;28;20042;-80
2022/10/21 09:01:12;;;;;;;9.55;3.10;;;18.10;83.60;;;;;;5021535;28;20464;-81
2022/10/21 09:04:01;;;;;;;6.55;2.58;;;18.10;83.40;;;;;;5040207;28;20037;-84
2022/10/21 09:06:38;;;;;;;10.30;2.53;;;18.20;83.70;;;;;;5022330;28;20112;-81
2022/10/21 09:09:36;;;;;;;10.18;2.45;;;18.50;82.70;;;;;;5022519;28;20222;-81
2022/10/21 09:12:27;;;;;;;7.00;2.42;;;18.60;82.20;;;;;;5039057;28;20037;-79
2022/10/21 09:15:16;;;;;;;4.85;1.92;;;18.70;82.20;;;;;;5020876;28;20044;-80
2022/10/21 09:17:57;;;;;;;5.63;2.40;;;18.80;80.90;;;;;;5027673;28;20354;-83
2022/10/21 09:20:49;;;;;;;8.88;2.35;;;18.80;80.70;;;;;;5029653;28;20068;-80
2022/10/21 09:23:52;;;;;;;5.57;2.15;;;18.60;80.40;;;;;;5019439;28;20061;-82
2022/10/21 09:26:42;;;;;;;10.57;2.58;;;18.60;80.80;;;;;;5019503;28;20128;-81
2022/10/21 09:29:17;;;;;;;7.20;2.45;;;18.60;81.20;;;;;;5022980;28;20124;-84
2022/10/21 09:31:42;;;;;;;8.45;2.38;;;18.60;81.00;;;;;;5021258;28;20037;-81
2022/10/21 09:34:21;;;;;;;5.97;2.30;;;18.60;81.20;;;;;;5021353;28;20416;-86
2022/10/21 09:36:48;;;;;;;6.00;2.00;;;18.70;81.10;;;;;;5023370;28;20479;-82
2022/10/21 09:39:32;;;;;;;5.63;2.28;;;18.90;80.50;;;;;;5020717;28;20477;-84
2022/10/21 09:41:58;;;;;;;6.03;2.00;;;19.00;80.50;;;;;;5022264;28;20099;-82
2022/10/21 09:44:24;;;;;;;5.65;2.35;;;19.10;80.00;;;;;;5020052;28;20053;-83
2022/10/21 09:46:52;;;;;;;4.45;2.10;;;19.10;79.40;;;;;;5020088;28;20048;-82
2022/10/21 09:49:28;;;;;;;7.55;2.13;;;19.00;79.80;;;;;;5018896;28;20050;-82
2022/10/21 09:51:55;;;;;;;9.13;2.42;;;19.10;79.50;;;;;;5023922;28;20030;-82
2022/10/21 09:54:24;;;;;;;7.88;2.20;;;19.10;79.50;;;;;;5019455;28;20041;-80
2022/10/21 09:57:09;;;;;;;6.88;2.10;;;19.10;79.70;;;;;;5017347;28;20040;-82
2022/10/21 09:59:48;;;;;;;7.72;2.22;;;19.20;79.20;;;;;;5034363;28;20477;-82
2022/10/21 10:02:15;;;;;;;8.30;2.30;;;19.30;78.80;;;;;;5020407;28;20485;-84
2022/10/21 10:04:40;;;;;;;6.68;2.28;;;19.40;78.60;;;;;;5019010;28;20541;-82
2022/10/21 10:07:24;;;;;;;6.15;2.10;;;19.50;78.10;;;;;;5024393;28;20033;-82
2022/10/21 10:09:50;;;;;;;5.22;1.90;;;19.60;78.10;;;;;;5032035;28;20065;-81
2022/10/21 10:12:24;;;;;;;5.45;1.80;;;19.70;77.50;;;;;;5019288;28;20162;-82
2022/10/21 10:14:50;;;;;;;6.70;2.10;;;19.90;77.50;;;;;;5019864;28;20077;-81
2022/10/21 10:17:25;;;;;;;3.90;1.70;;;20.00;76.50;;;;;;5017335;28;20469;-80
2022/10/21 10:20:03;;;;;;;5.32;2.38;;;20.10;76.20;;;;;;5019983;28;20049;-82
2022/10/21 10:22:37;;;;;;;6.95;2.05;;;20.10;75.50;;;;;;5020382;28;20041;-80
2022/10/21 10:25:23;;;;;;;5.35;1.88;;;19.80;75.90;;;;;;5015085;28;20111;-82
2022/10/21 10:27:58;;;;;;;5.80;2.28;;;19.70;76.10;;;;;;5017152;28;20525;-81
2022/10/21 10:30:28;;;;;;;6.72;2.05;;;19.60;76.50;;;;;;5018146;28;20164;-81
2022/10/21 10:32:55;;;;;;;7.78;2.08;;;19.60;77.00;;;;;;5016871;28;20037;-83
2022/10/21 10:35:34;;;;;;;5.95;1.98;;;19.50;76.70;;;;;;5016583;28;20110;-81
2022/10/21 10:38:01;;;;;;;7.60;2.30;;;19.40;76.90;;;;;;5016364;28;20037;-83
2022/10/21 10:40:41;;;;;;;3.88;1.83;;;19.40;77.20;;;;;;5012135;28;20501;-81
2022/10/21 10:43:19;;;;;;;5.75;2.05;;;19.40;76.90;;;;;;5016947;28;20537;-80
2022/10/21 10:45:52;;;;;;;5.93;2.13;;;19.50;77.40;;;;;;5029403;28;20041;-81
2022/10/21 10:48:23;;;;;;;5.35;1.92;;;19.60;77.70;;;;;;5014114;28;20040;-80
2022/10/21 10:50:49;;;;;;;5.45;1.90;;;19.60;76.90;;;;;;5015017;28;20041;-79
2022/10/21 10:53:31;;;;;;;6.13;1.95;;;19.70;76.80;;;;;;5015462;28;20033;-81
2022/10/21 10:56:25;;;;;;;6.57;1.95;;;19.80;77.00;;;;;;5007046;28;20451;-84
2022/10/21 10:59:07;;;;;;;4.13;1.92;;;20.00;76.00;;;;;;5010522;28;20056;-80
2022/10/21 11:01:45;;;;;;;6.30;2.30;;;20.20;75.70;;;;;;5009036;28;20444;-82
2022/10/21 11:04:38;;;;;;;9.70;2.15;;;20.60;75.30;;;;;;5027952;28;20037;-82
2022/10/21 11:07:29;;;;;;;8.40;2.33;;;21.00;73.60;;;;;;5022838;28;20091;-81
2022/10/21 11:10:04;;;;;;;7.55;2.10;;;21.30;73.50;;;;;;5009772;28;20154;-80
2022/10/21 11:12:30;;;;;;;;;;;21.30;72.30;;;;;;5013030;28;20040;-80
2022/10/21 11:14:57;;;;;;;7.13;2.35;;;21.40;71.20;;;;;;5010484;28;20325;-81
2022/10/21 11:17:39;;;;;;;10.38;2.33;;;21.20;71.30;;;;;;5033243;28;20030;-86
2022/10/21 11:20:25;;;;;;;9.70;2.33;;;21.20;72.20;;;;;;5012440;28;20377;-84
2022/10/21 11:23:19;;;;;;;6.82;1.77;;;21.40;72.10;;;;;;5014747;28;20038;-82
2022/10/21 11:25:52;;;;;;;7.53;2.95;;;21.40;71.60;;;;;;5031860;28;20111;-80
2022/10/21 11:28:24;;;;;;;7.88;2.33;;;21.40;70.90;;;;;;5019261;28;20297;-82
2022/10/21 11:31:22;;;;;;;8.65;2.40;;;21.30;71.40;;;;;;5024256;28;20389;-81
2022/10/21 11:33:55;;;;;;;6.10;2.00;;;21.20;71.30;;;;;;5027080;28;20048;-83
2022/10/21 11:36:38;;;;;;;7.70;2.20;;;21.30;71.50;;;;;;5019603;28;20029;-85
2022/10/21 11:39:13;;;;;;;6.78;2.55;;;21.30;72.20;;;;;;5019396;28;20061;-82
2022/10/21 11:41:50;;;;;;;6.15;1.98;;;21.30;71.80;;;;;;5023005;28;20046;-85
2022/10/21 11:44:38;;;;;;;6.07;2.05;;;21.40;72.10;;;;;;5037695;28;20037;-82
2022/10/21 11:47:10;;;;;;;6.82;2.15;;;21.40;71.90;;;;;;5020745;28;20041;-82
2022/10/21 11:50:16;;;;;;;8.32;2.30;;;21.40;71.20;;;;;;5023738;28;20050;-84
2022/10/21 11:52:48;;;;;;;5.97;1.90;;;21.40;71.10;;;;;;5020275;28;20045;-85
2022/10/21 11:55:20;;;;;;;7.22;1.67;;;21.30;70.60;;;;;;5019906;28;20045;-80
2022/10/21 11:57:55;;;;;;;4.20;1.70;;;21.40;71.60;;;;;;5020744;28;20065;-80
2022/10/21 12:00:26;;;;;;;7.20;1.92;;;21.50;70.90;;;;;;5018919;28;20254;-81
2022/10/21 12:03:10;;;;;;;5.63;2.08;;;21.30;69.90;;;;;;5021172;28;20065;-81
2022/10/21 12:06:00;;;;;;;4.82;2.05;;;21.30;70.90;;;;;;5036896;28;20364;-80
2022/10/21 12:08:35;;;;;;;6.90;1.90;;;21.50;70.20;;;;;;5021423;28;20037;-81
2022/10/21 12:11:19;;;;;;;7.30;2.13;;;21.50;70.00;;;;;;5024042;28;20045;-80
2022/10/21 12:13:53;;;;;;;5.32;1.83;;;21.40;70.00;;;;;;5023630;28;20385;-83
2022/10/21 12:16:31;;;;;;;5.72;2.00;;;21.50;69.60;;;;;;5021871;28;20104;-80
2022/10/21 12:19:00;;;;;;;7.47;1.95;;;21.60;69.60;;;;;;5020415;28;20056;-81
2022/10/21 12:21:34;;;;;;;3.72;1.80;;;21.60;69.20;;;;;;5020589;28;20046;-80
2022/10/21 12:24:30;;;;;;;4.90;1.70;;;21.70;69.40;;;;;;5019670;28;20775;-81
2022/10/21 12:27:08;;;;;;;9.35;2.00;;;21.70;69.50;;;;;;5019797;28;20048;-85
2022/10/21 12:30:12;;;;;;;5.70;2.10;;;21.90;69.20;;;;;;5026221;28;20071;-81
2022/10/21 12:32:41;;;;;;;7.28;1.90;;;21.90;69.40;;;;;;5021092;28;20034;-84
2022/10/21 12:35:15;;;;;;;6.18;1.92;;;21.80;69.20;;;;;;5022530;28;20107;-80
2022/10/21 12:38:04;;;;;;;5.33;2.10;;;21.70;69.40;;;;;;5016164;28;20496;-80
2022/10/21 12:40:31;;;;;;;7.05;2.13;;;21.70;70.10;;;;;;5035811;28;20311;-83
2022/10/21 12:43:22;;;;;;;8.10;2.08;;;21.70;70.20;;;;;;5021616;28;20037;-82
2022/10/21 12:46:09;;;;;;;5.57;1.80;;;21.70;70.10;;;;;;5016045;28;20040;-83
2022/10/21 12:48:54;;;;;;;5.05;1.55;;;21.80;69.20;;;;;;5019827;28;20033;-83
2022/10/21 12:51:26;;;;;;;4.85;1.83;;;21.80;68.80;;;;;;5021964;28;20045;-82
2022/10/21 12:54:01;;;;;;;6.70;1.92;;;22.00;69.10;;;;;;5022650;28;20082;-81
2022/10/21 12:56:42;;;;;;;5.15;1.55;;;21.90;67.70;;;;;;5026009;28;20404;-84
2022/10/21 12:59:33;;;;;;;3.67;1.75;;;21.80;68.10;;;;;;5021185;28;20473;-83
2022/10/21 13:02:05;;;;;;;5.82;1.77;;;21.90;68.40;;;;;;5019465;28;20040;-80